Time;durP1;ratioP1;P1;durP2;ratioP2;P2;SDS_P1;SDS_P2;PMS_P1;PMS_P2;Temp;Humidity;BMP_temperature;BMP_pressure;BME280_temperature;BME280_humidity;BME280_pressure;Samples;Min_cycle;Max_cycle;Signal;HPM_P1;HPM_P2
2022/05/21 00:00:11;;;;;;;24.67;11.10;;;;;;;12.56;96.61;101810.28;5074243;28;20101;-74
2022/05/21 00:02:37;;;;;;;19.63;11.80;;;;;;;12.64;96.72;101817.19;5056289;28;20392;-74
2022/05/21 00:05:03;;;;;;;21.65;12.15;;;;;;;12.65;96.24;101808.41;5074148;28;20119;-74
2022/05/21 00:07:29;;;;;;;25.70;12.93;;;;;;;12.46;96.16;101775.19;5072885;28;20047;-74
2022/05/21 00:09:54;;;;;;;20.65;12.32;;;;;;;12.60;96.48;101797.75;5074195;28;20044;-76
2022/05/21 00:12:20;;;;;;;25.45;13.05;;;;;;;12.65;96.49;101803.22;5074374;28;20020;-75
2022/05/21 00:14:45;;;;;;;19.23;12.07;;;;;;;12.51;96.44;101802.19;5073996;28;20050;-73
2022/05/21 00:17:11;;;;;;;22.13;12.10;;;;;;;12.50;96.74;101798.00;5055737;28;20450;-74
2022/05/21 00:19:36;;;;;;;26.27;12.68;;;;;;;12.44;96.95;101788.34;5056034;28;20059;-73
2022/05/21 00:22:02;;;;;;;24.63;12.77;;;;;;;12.53;96.50;101795.06;5056079;28;20024;-74
2022/05/21 00:24:28;;;;;;;19.83;12.18;;;;;;;12.50;96.19;101789.44;5074103;28;20077;-74
2022/05/21 00:26:53;;;;;;;22.00;12.43;;;;;;;12.64;96.52;101786.88;5073959;28;20059;-73
2022/05/21 00:29:20;;;;;;;21.33;12.35;;;;;;;12.55;96.05;101789.72;5056423;28;20025;-73
2022/05/21 00:31:46;;;;;;;17.88;11.38;;;;;;;12.65;95.93;101791.06;5074205;28;20027;-73
2022/05/21 00:34:12;;;;;;;24.05;11.98;;;;;;;12.67;95.25;101790.91;5056352;28;20452;-73
2022/05/21 00:36:38;;;;;;;22.23;11.70;;;;;;;12.62;94.94;101778.44;5055998;28;20024;-73
2022/05/21 00:39:03;;;;;;;22.80;11.15;;;;;;;12.79;95.13;101806.84;5056187;28;20111;-73
2022/05/21 00:41:29;;;;;;;17.88;10.63;;;;;;;12.73;94.98;101799.75;5074037;28;20364;-72
2022/05/21 00:43:59;;;;;;;23.58;11.07;;;;;;;12.72;96.00;101805.94;5074179;28;20460;-73
2022/05/21 00:46:29;;;;;;;21.65;10.57;;;;;;;12.80;95.42;101803.25;5039395;28;20074;-73
2022/05/21 00:49:17;;;;;;;22.80;9.90;;;;;;;12.81;95.21;101810.06;5073851;28;20028;-74
2022/05/21 00:51:47;;;;;;;18.65;8.80;;;;;;;12.81;94.34;101808.28;5055799;28;20047;-73
2022/05/21 00:54:15;;;;;;;23.08;9.10;;;;;;;12.76;95.42;101804.59;5073795;28;20032;-75
2022/05/21 00:56:48;;;;;;;23.23;8.30;;;;;;;12.79;94.45;101810.22;5073829;28;20051;-74
2022/05/21 01:02:01;;;;;;;16.83;6.15;;;;;;;12.91;94.85;101807.22;5074359;28;20034;-75
2022/05/21 01:04:27;;;;;;;15.15;5.25;;;;;;;12.97;94.40;101811.69;5055452;28;20483;-74
2022/05/21 01:06:56;;;;;;;20.00;4.95;;;;;;;13.09;93.33;101811.09;5055701;28;20028;-75
2022/05/21 01:09:21;;;;;;;21.33;4.70;;;;;;;12.99;93.90;101809.72;5055689;28;20024;-74
2022/05/21 01:11:47;;;;;;;20.08;4.32;;;;;;;12.91;94.03;101781.28;5073880;28;20091;-74
2022/05/21 01:14:15;;;;;;;17.83;4.18;;;;;;;13.09;94.23;101800.72;5073990;28;20051;-74
2022/05/21 01:16:42;;;;;;;24.83;4.50;;;;;;;13.08;94.58;101806.88;5073537;28;20094;-74
2022/05/21 01:19:08;;;;;;;18.55;4.32;;;;;;;13.02;95.07;101801.59;5055511;28;20020;-74
2022/05/21 01:21:36;;;;;;;16.52;4.00;;;;;;;13.14;94.79;101807.13;5073789;28;20027;-74
2022/05/21 01:24:02;;;;;;;18.60;3.78;;;;;;;13.14;93.66;101799.34;5073577;28;20029;-74
2022/05/21 01:26:28;;;;;;;20.98;4.00;;;;;;;13.09;94.12;101792.94;5055574;28;20120;-74
2022/05/21 01:28:54;;;;;;;19.50;3.92;;;;;;;13.07;94.16;101794.09;5073479;28;20368;-74
2022/05/21 01:31:21;;;;;;;18.70;4.38;;;;;;;13.13;94.57;101795.97;5073558;28;20025;-73
2022/05/21 01:33:47;;;;;;;21.48;4.32;;;;;;;13.07;94.71;101794.09;5073806;28;20096;-73
2022/05/21 01:36:14;;;;;;;25.15;5.07;;;;;;;13.23;94.40;101803.47;5073394;28;20028;-74
2022/05/21 01:38:40;;;;;;;21.45;4.07;;;;;;;13.19;95.81;101797.84;5074044;28;20028;-73
2022/05/21 01:41:07;;;;;;;18.17;4.35;;;;;;;13.23;95.00;101801.66;5073377;28;20028;-74
2022/05/21 01:46:17;;;;;;;21.98;4.00;;;;;;;13.26;93.67;101793.59;5073642;28;20540;-73
2022/05/21 01:48:43;;;;;;;21.38;4.40;;;;;;;13.22;94.31;101794.09;5073375;28;20107;-73
2022/05/21 01:51:09;;;;;;;25.70;4.53;;;;;;;13.34;94.36;101797.06;5055417;28;20047;-74
2022/05/21 01:53:36;;;;;;;18.30;4.45;;;;;;;13.33;94.24;101793.66;5073367;28;20028;-74
2022/05/21 01:56:03;;;;;;;23.92;4.95;;;;;;;13.35;94.45;101794.28;5073432;28;20021;-73
2022/05/21 01:58:28;;;;;;;23.15;4.55;;;;;;;13.32;94.83;101798.06;5055631;28;20060;-73
2022/05/21 02:00:56;;;;;;;23.70;4.35;;;;;;;13.28;94.09;101796.00;5073219;28;20541;-73
2022/05/21 02:03:22;;;;;;;19.02;4.18;;;;;;;13.32;94.61;101803.25;5076837;28;20020;-73
2022/05/21 02:05:47;;;;;;;21.23;4.28;;;;;;;13.38;94.86;101803.50;5055612;28;20052;-74
2022/05/21 02:08:14;;;;;;;20.10;4.80;;;;;;;13.33;94.21;101793.66;5057183;28;20028;-73
2022/05/21 02:10:41;;;;;;;18.90;4.13;;;;;;;13.26;95.61;101800.53;5055456;28;20063;-75
2022/05/21 02:13:11;;;;;;;21.83;4.28;;;;;;;13.22;95.08;101802.66;5056744;28;20033;-74
2022/05/21 02:15:37;;;;;;;22.05;4.78;;;;;;;13.16;94.38;101785.22;5055494;28;20391;-74
2022/05/21 02:18:02;;;;;;;22.75;4.30;;;;;;;13.35;94.64;101796.91;5055549;28;20029;-75
2022/05/21 02:20:28;;;;;;;24.77;4.50;;;;;;;13.27;95.58;101802.19;5055403;28;20035;-75
2022/05/21 02:22:54;;;;;;;25.25;4.22;;;;;;;13.28;94.88;101811.56;5055333;28;20049;-74
2022/05/21 02:25:20;;;;;;;20.38;4.13;;;;;;;13.28;94.81;101803.78;5056851;28;20025;-75
2022/05/21 02:27:45;;;;;;;21.25;3.67;;;;;;;13.28;92.79;101804.56;5056759;28;20487;-74
2022/05/21 02:30:11;;;;;;;19.00;3.78;;;;;;;13.37;93.39;101796.69;5055224;28;20082;-73
2022/05/21 02:32:36;;;;;;;18.65;3.47;;;;;;;13.37;92.35;101807.09;5057147;28;20032;-73
2022/05/21 02:35:02;;;;;;;18.75;3.63;;;;;;;13.31;92.33;101803.41;5056445;28;20031;-74
2022/05/21 02:40:11;;;;;;;23.90;3.70;;;;;;;13.29;92.60;101815.75;5056838;28;20515;-74
2022/05/21 02:42:48;;;;;;;22.73;4.35;;;;;;;13.19;92.38;101816.00;5071908;28;20025;-75
2022/05/21 02:45:25;;;;;;;24.08;3.65;;;;;;;13.23;92.14;101809.47;5056723;28;20092;-75
2022/05/21 02:47:52;;;;;;;20.90;3.70;;;;;;;13.23;92.44;101809.47;5054923;28;20056;-74
2022/05/21 02:50:20;;;;;;;19.90;3.63;;;;;;;13.24;93.07;101810.28;5055127;28;20425;-73
2022/05/21 02:52:46;;;;;;;18.77;3.42;;;;;;;13.22;92.88;101807.06;5056144;28;20071;-73
2022/05/21 02:55:13;;;;;;;20.70;3.88;;;;;;;13.22;92.73;101815.66;5054949;28;20029;-75
2022/05/21 02:57:40;;;;;;;24.20;3.70;;;;;;;13.13;93.15;101810.72;5054942;28;20017;-73
2022/05/21 03:00:20;;;;;;;14.18;3.40;;;;;;;13.03;94.16;101809.22;5054805;28;20087;-72
2022/05/21 03:02:46;;;;;;;20.55;3.42;;;;;;;12.99;93.97;101804.53;5055990;28;20094;-73
2022/05/21 03:05:12;;;;;;;20.00;3.35;;;;;;;13.06;93.28;101802.84;5069170;28;20049;-73
2022/05/21 03:07:39;;;;;;;27.50;3.28;;;;;;;12.93;93.59;101813.03;5075954;28;20111;-73
2022/05/21 03:10:21;;;;;;;17.58;2.90;;;;;;;12.95;93.81;101818.88;5058296;28;20028;-73
2022/05/21 03:12:54;;;;;;;23.38;4.13;;;;;;;13.01;92.70;101813.75;5075604;28;20043;-74
2022/05/21 03:15:22;;;;;;;18.55;3.17;;;;;;;13.02;92.96;101815.38;5075997;28;20025;-73
2022/05/21 03:17:48;;;;;;;19.85;3.67;;;;;;;12.99;92.65;101815.72;5075903;28;20050;-74
2022/05/21 03:20:16;;;;;;;10.38;2.60;;;;;;;12.85;92.82;101817.31;5075782;28;20028;-74
2022/05/21 03:22:41;;;;;;;19.27;3.20;;;;;;;12.72;93.37;101817.13;5075470;28;20074;-74
2022/05/21 03:25:08;;;;;;;26.02;3.13;;;;;;;12.74;92.86;101814.34;5075378;28;20399;-74
2022/05/21 03:27:34;;;;;;;24.75;3.47;;;;;;;12.73;93.33;101812.72;5075692;28;20082;-74
2022/05/21 03:29:59;;;;;;;21.25;3.22;;;;;;;12.70;92.75;101816.47;5057581;28;20020;-74
2022/05/21 03:32:24;;;;;;;16.13;3.13;;;;;;;12.49;93.50;101793.81;5057335;28;20032;-74
2022/05/21 03:34:50;;;;;;;24.25;3.30;;;;;;;12.59;93.74;101815.09;5076053;28;20029;-74
2022/05/21 03:37:15;;;;;;;18.85;3.05;;;;;;;12.57;94.05;101819.69;5075461;28;20060;-75
2022/05/21 03:39:41;;;;;;;23.95;3.83;;;;;;;12.40;94.76;101807.81;5057592;28;20024;-74
2022/05/21 03:42:06;;;;;;;18.45;3.30;;;;;;;12.46;94.23;101816.66;5056987;28;20495;-75
2022/05/21 03:44:31;;;;;;;20.67;3.22;;;;;;;12.44;93.81;101816.06;5057463;28;20486;-75
2022/05/21 03:46:58;;;;;;;20.65;3.53;;;;;;;12.56;94.01;101820.63;5057148;28;20096;-74
2022/05/21 03:49:25;;;;;;;22.23;3.28;;;;;;;12.48;93.61;101812.91;5057450;28;20115;-75
2022/05/21 03:51:50;;;;;;;15.65;2.72;;;;;;;12.51;94.53;101822.94;5057253;28;20074;-75
2022/05/21 03:54:16;;;;;;;21.45;3.22;;;;;;;12.42;94.32;101808.44;5057520;28;20364;-74
2022/05/21 03:56:41;;;;;;;25.48;3.70;;;;;;;12.43;93.50;101810.06;5075028;28;20054;-74
2022/05/21 03:59:07;;;;;;;21.40;3.50;;;;;;;12.48;94.23;101819.91;5057389;28;20032;-74
2022/05/21 04:01:32;;;;;;;19.30;3.35;;;;;;;12.37;94.96;101821.09;5074498;28;20032;-74
2022/05/21 04:03:57;;;;;;;12.98;3.05;;;;;;;12.41;93.40;101824.97;5056514;28;20132;-75
2022/05/21 04:06:23;;;;;;;23.27;3.25;;;;;;;12.55;93.40;101836.38;5074923;28;20020;-75
2022/05/21 04:08:49;;;;;;;24.48;3.88;;;;;;;12.56;93.06;101840.59;5075007;28;20039;-75
2022/05/21 04:11:15;;;;;;;20.05;3.50;;;;;;;12.63;91.69;101844.91;5056714;28;20444;-74
2022/05/21 04:13:40;;;;;;;20.17;3.55;;;;;;;12.69;92.06;101850.34;5056642;28;20115;-77
2022/05/21 04:16:05;;;;;;;19.67;3.40;;;;;;;12.61;91.73;101848.66;5056758;28;20078;-77
2022/05/21 04:18:31;;;;;;;20.00;3.53;;;;;;;12.76;91.69;101846.09;5056723;28;20357;-78
2022/05/21 04:20:56;;;;;;;21.83;3.42;;;;;;;12.84;90.95;101856.41;5074764;28;20035;-78
2022/05/21 04:23:21;;;;;;;22.77;3.75;;;;;;;12.79;90.49;101845.75;5074430;28;20107;-77
2022/05/21 04:25:47;;;;;;;22.67;3.58;;;;;;;12.82;90.29;101855.78;5056012;28;20048;-77
2022/05/21 04:28:13;;;;;;;20.67;3.08;;;;;;;12.90;90.87;101858.28;5056556;28;20028;-77
2022/05/21 04:30:39;;;;;;;18.67;2.90;;;;;;;12.99;90.36;101859.81;5074386;28;20046;-78
2022/05/21 04:33:04;;;;;;;24.17;3.70;;;;;;;13.04;89.35;101867.09;5056437;28;20459;-77
2022/05/21 04:38:16;;;;;;;25.35;3.28;;;;;;;13.17;88.21;101869.88;5074276;28;20410;-77
2022/05/21 04:40:42;;;;;;;28.90;3.50;;;;;;;13.06;88.64;101872.91;5074423;28;20044;-77
2022/05/21 04:43:08;;;;;;;20.38;3.30;;;;;;;13.02;88.17;101864.66;5039711;28;20086;-77
2022/05/21 04:45:34;;;;;;;23.30;3.45;;;;;;;12.85;89.10;101871.78;5074115;28;20085;-77
2022/05/21 04:48:04;;;;;;;17.20;3.42;;;;;;;12.87;89.14;101871.63;5073886;28;20021;-77
2022/05/21 04:50:30;;;;;;;17.80;3.42;;;;;;;12.83;89.17;101867.75;5074198;28;20033;-77
2022/05/21 04:52:55;;;;;;;17.33;3.00;;;;;;;12.84;90.49;101869.38;5056376;28;20032;-77
2022/05/21 04:55:21;;;;;;;24.63;3.95;;;;;;;12.88;89.96;101879.22;5056071;28;20116;-77
2022/05/21 04:57:46;;;;;;;17.50;3.45;;;;;;;12.87;89.50;101872.44;5074161;28;20024;-77
2022/05/21 05:00:12;;;;;;;25.40;3.08;;;;;;;12.97;89.74;101874.75;5056116;28;20577;-77
2022/05/21 05:02:37;;;;;;;20.98;3.17;;;;;;;12.97;89.42;101886.94;5055934;28;20025;-77
2022/05/21 05:05:04;;;;;;;23.15;3.35;;;;;;;13.00;90.21;101882.19;5055795;28;20110;-77
2022/05/21 05:07:29;;;;;;;15.52;2.92;;;;;;;13.02;89.10;101888.03;5055864;28;20024;-76
2022/05/21 05:09:54;;;;;;;22.17;3.38;;;;;;;12.97;88.91;101885.13;5055581;28;20021;-77
2022/05/21 05:12:20;;;;;;;19.40;2.90;;;;;;;13.19;88.09;101883.50;5074174;28;20025;-77
2022/05/21 05:14:45;;;;;;;18.00;3.40;;;;;;;13.17;88.15;101882.06;5055911;28;20033;-76
2022/05/21 05:17:13;;;;;;;22.38;3.10;;;;;;;13.20;88.50;101884.28;5055662;28;20024;-80
2022/05/21 05:19:38;;;;;;;27.45;3.50;;;;;;;13.28;87.85;101898.03;5073775;28;20124;-77
2022/05/21 05:22:04;;;;;;;19.13;3.20;;;;;;;13.34;86.59;101891.31;5055609;28;20029;-77
2022/05/21 05:24:30;;;;;;;17.63;3.08;;;;;;;13.25;87.02;101894.94;5074131;28;20028;-76
2022/05/21 05:26:55;;;;;;;15.85;3.17;;;;;;;13.25;87.78;101885.41;5055636;28;20043;-77
2022/05/21 05:29:20;;;;;;;19.00;3.30;;;;;;;13.27;87.02;101886.03;5055500;28;20024;-77
2022/05/21 05:31:46;;;;;;;21.10;3.65;;;;;;;13.43;85.88;101887.66;5073852;28;20035;-77
2022/05/21 05:34:12;;;;;;;18.15;3.42;;;;;;;13.51;85.48;101890.16;5038744;28;20032;-76
2022/05/21 05:36:38;;;;;;;25.45;3.22;;;;;;;13.56;85.33;101901.81;5058043;28;20565;-76
2022/05/21 05:39:03;;;;;;;21.73;3.50;;;;;;;13.61;86.61;101907.25;5077747;28;20025;-77
2022/05/21 05:41:29;;;;;;;16.90;2.90;;;;;;;13.75;84.17;101902.09;5077817;28;20032;-77
2022/05/21 05:43:56;;;;;;;17.77;3.20;;;;;;;14.10;83.49;101907.50;5077846;28;20020;-76
2022/05/21 05:46:23;;;;;;;16.60;2.85;;;;;;;14.23;82.08;101902.44;5059565;28;20070;-77
2022/05/21 05:48:48;;;;;;;22.05;3.33;;;;;;;16.59;74.87;101911.31;5059517;28;20039;-77
2022/05/21 05:51:16;;;;;;;19.30;3.22;;;;;;;18.74;68.39;101915.75;5069984;28;20024;-77
2022/05/21 05:53:42;;;;;;;17.83;3.55;;;;;;;22.57;52.15;101926.78;5084441;28;20025;-78
2022/05/21 05:56:08;;;;;;;20.27;3.50;;;;;;;21.34;52.83;101917.38;5077631;28;20450;-78
2022/05/21 06:01:20;;;;;;;17.92;3.50;;;;;;;20.69;53.97;101926.19;5080065;28;20446;-77
2022/05/21 06:03:45;;;;;;;16.92;3.42;;;;;;;21.23;52.99;101925.28;5077627;28;20429;-79
2022/05/21 06:06:10;;;;;;;13.63;3.28;;;;;;;23.77;48.54;101924.50;5059440;28;20056;-79
2022/05/21 06:08:37;;;;;;;20.23;3.30;;;;;;;24.81;44.40;101919.88;5077986;28;20040;-78
2022/05/21 06:11:03;;;;;;;15.85;2.80;;;;;;;26.15;40.85;101933.34;5060683;28;20074;-79
2022/05/21 06:13:28;;;;;;;14.70;3.35;;;;;;;26.58;40.58;101936.56;5079142;28;20032;-80
2022/05/21 06:15:53;;;;;;;18.80;3.40;;;;;;;26.17;40.60;101935.75;5082410;28;20028;-80
2022/05/21 06:18:20;;;;;;;14.32;3.15;;;;;;;25.98;39.96;101940.75;5063734;28;20063;-79
2022/05/21 06:20:46;;;;;;;19.45;3.33;;;;;;;24.42;43.51;101930.66;5059438;28;20020;-78
2022/05/21 06:23:12;;;;;;;16.90;3.55;;;;;;;24.00;45.14;101929.50;5058785;28;20073;-78
2022/05/21 06:25:38;;;;;;;17.25;3.53;;;;;;;26.47;39.50;101941.06;5078374;28;20021;-78
2022/05/21 06:28:05;;;;;;;14.00;2.83;;;;;;;26.98;36.97;101941.00;5059447;28;20032;-79
2022/05/21 06:30:32;;;;;;;16.02;3.00;;;;;;;26.70;38.88;101938.94;5042360;28;20047;-79
2022/05/21 06:32:59;;;;;;;11.27;2.88;;;;;;;26.03;39.60;101938.91;5058993;28;20027;-78
2022/05/21 06:35:27;;;;;;;13.73;2.85;;;;;;;27.27;38.69;101937.75;5076852;28;20020;-78
2022/05/21 06:37:54;;;;;;;14.68;2.60;;;;;;;27.18;38.09;101937.53;5059130;28;20036;-78
2022/05/21 06:40:19;;;;;;;16.35;2.88;;;;;;;25.33;40.58;101946.38;5060185;28;20021;-78
2022/05/21 06:42:46;;;;;;;14.50;3.13;;;;;;;26.99;38.86;101945.25;5058859;28;20055;-77
2022/05/21 06:45:12;;;;;;;14.65;3.05;;;;;;;25.49;40.29;101955.19;5058723;28;20092;-78
2022/05/21 06:47:37;;;;;;;13.35;2.90;;;;;;;26.15;39.42;101959.06;5075988;28;20052;-77
2022/05/21 06:50:05;;;;;;;14.88;2.78;;;;;;;26.49;38.22;101957.47;5076509;28;20475;-77
2022/05/21 06:52:31;;;;;;;13.95;2.72;;;;;;;25.85;40.01;101947.38;5076325;28;20492;-77
2022/05/21 06:54:56;;;;;;;17.02;3.70;;;;;;;23.11;45.82;101954.25;5077008;28;20035;-77
2022/05/21 06:57:26;;;;;;;17.50;3.03;;;;;;;24.20;43.56;101967.72;5076580;28;20063;-78
2022/05/21 06:59:52;;;;;;;18.48;3.30;;;;;;;24.43;43.51;101964.00;5076718;28;20425;-78
2022/05/21 07:02:17;;;;;;;16.10;3.00;;;;;;;23.74;45.84;101965.38;5076329;28;20056;-78
2022/05/21 07:07:33;;;;;;;18.38;3.08;;;;;;;21.19;53.86;101965.16;5077027;28;20040;-78
2022/05/21 07:10:08;;;;;;;21.80;3.03;;;;;;;20.15;54.21;101969.97;5045596;28;20028;-78
2022/05/21 07:12:35;;;;;;;15.23;3.10;;;;;;;20.38;54.16;101973.69;5059044;28;20071;-79
2022/05/21 07:15:02;;;;;;;17.02;3.30;;;;;;;19.33;58.08;101988.59;5058363;28;20123;-78
2022/05/21 07:17:28;;;;;;;16.75;3.03;;;;;;;19.14;59.94;101979.88;5060417;28;20036;-79
2022/05/21 07:19:53;;;;;;;16.00;3.25;;;;;;;19.94;57.41;101989.59;5083561;28;20095;-77
2022/05/21 07:22:19;;;;;;;13.20;2.70;;;;;;;19.84;58.52;101990.09;5079932;28;20103;-78
2022/05/21 07:24:44;;;;;;;18.05;3.08;;;;;;;19.47;58.55;101993.69;5076946;28;20365;-78
2022/05/21 07:27:12;;;;;;;20.55;3.10;;;;;;;19.62;57.07;101994.13;5075393;28;20020;-78
2022/05/21 07:29:38;;;;;;;16.08;2.88;;;;;;;19.78;58.15;101998.84;5075750;28;20364;-78
2022/05/21 07:32:04;;;;;;;18.45;3.25;;;;;;;20.00;59.23;101995.78;5075965;28;20032;-78
2022/05/21 07:34:30;;;;;;;13.98;3.08;;;;;;;20.30;57.26;102001.06;5075924;28;20059;-78
2022/05/21 07:36:55;;;;;;;17.23;3.13;;;;;;;20.32;54.13;102006.88;5057219;28;20107;-79
2022/05/21 07:39:20;;;;;;;12.65;2.83;;;;;;;20.03;57.80;102004.00;5058158;28;20466;-78
2022/05/21 07:41:46;;;;;;;12.18;3.00;;;;;;;20.23;56.62;102009.03;5057603;28;20086;-77
2022/05/21 07:44:11;;;;;;;16.35;2.60;;;;;;;19.84;57.41;102005.84;5057476;28;20116;-78
2022/05/21 07:46:36;;;;;;;15.95;2.67;;;;;;;20.52;56.10;102006.63;5075194;28;20025;-78
2022/05/21 07:49:01;;;;;;;18.45;3.03;;;;;;;19.66;59.29;102003.22;5074546;28;20031;-78
2022/05/21 07:51:27;;;;;;;13.90;3.08;;;;;;;19.58;59.64;102016.56;5058054;28;20047;-75
2022/05/21 07:53:52;;;;;;;16.63;3.47;;;;;;;19.71;59.64;102013.03;5041494;28;20103;-76
2022/05/21 07:56:18;;;;;;;13.82;2.78;;;;;;;19.13;59.60;102003.66;5060088;28;20052;-77
2022/05/21 07:58:43;;;;;;;17.98;3.20;;;;;;;18.58;61.47;102008.66;5085945;28;20029;-83
2022/05/21 08:01:11;;;;;;;16.83;3.15;;;;;;;18.43;62.22;102024.63;5060168;28;20119;-77
2022/05/21 08:03:37;;;;;;;13.77;2.90;;;;;;;19.37;60.20;102025.66;5060826;28;20016;-77
2022/05/21 08:06:02;;;;;;;14.07;2.97;;;;;;;19.98;58.21;102024.06;5075477;28;20039;-76
2022/05/21 08:08:28;;;;;;;14.40;2.83;;;;;;;19.97;57.77;102031.13;5041300;28;20032;-77
2022/05/21 08:10:53;;;;;;;17.13;2.83;;;;;;;19.59;57.50;102026.03;5074462;28;20489;-77
2022/05/21 08:13:18;;;;;;;16.42;3.42;;;;;;;20.40;55.58;102030.22;5075133;28;20036;-76
2022/05/21 08:15:44;;;;;;;18.95;3.22;;;;;;;20.38;55.80;102041.97;5056674;28;20478;-77
2022/05/21 08:18:10;;;;;;;13.98;2.97;;;;;;;20.42;55.67;102046.53;5075066;28;20082;-76
2022/05/21 08:20:37;;;;;;;15.93;2.80;;;;;;;20.12;57.12;102043.88;5058062;28;20024;-78
2022/05/21 08:28:34;;;;;;;12.73;2.60;;;;;;;20.00;56.56;102035.94;5073943;28;20062;-77
2022/05/21 08:31:00;;;;;;;15.32;3.05;;;;;;;19.43;59.48;102044.97;5074827;28;20035;-76
2022/05/21 08:33:25;;;;;;;11.40;2.60;;;;;;;19.70;59.72;102048.94;5074248;28;20036;-77
2022/05/21 08:35:50;;;;;;;20.38;3.13;;;;;;;19.19;60.30;102043.94;5075188;28;20024;-78
2022/05/21 08:38:17;;;;;;;19.05;3.53;;;;;;;19.32;60.96;102038.59;5077113;28;20095;-77
2022/05/21 08:40:57;;;;;;;17.92;2.95;;;;;;;19.56;58.20;102044.81;5041103;28;20032;-78
2022/05/21 08:43:24;;;;;;;15.73;2.80;;;;;;;19.99;57.61;102044.81;5057507;28;20380;-78
2022/05/21 08:46:18;;;;;;;15.60;2.95;;;;;;;19.57;58.08;102038.59;5074707;28;20490;-77
2022/05/21 08:48:52;;;;;;;15.00;3.10;;;;;;;19.95;55.95;102040.25;5056254;28;20040;-78
2022/05/21 08:51:20;;;;;;;13.05;2.70;;;;;;;19.66;56.87;102044.38;5056341;28;20423;-78
2022/05/21 08:53:52;;;;;;;18.98;3.45;;;;;;;20.19;57.54;102049.84;5074960;28;20157;-79
2022/05/21 08:56:20;;;;;;;13.88;3.13;;;;;;;20.47;57.24;102035.38;5057325;28;20141;-79
2022/05/21 08:59:05;;;;;;;17.25;2.88;;;;;;;20.36;55.38;102047.41;5074772;28;20029;-79
2022/05/21 09:01:34;;;;;;;14.25;2.97;;;;;;;19.22;56.93;102022.53;5074171;28;20032;-79
2022/05/21 09:04:00;;;;;;;12.38;2.83;;;;;;;19.34;58.27;102047.03;5073699;28;20097;-77
2022/05/21 09:06:28;;;;;;;17.85;2.65;;;;;;;20.46;56.30;102045.06;5074260;28;20090;-77
2022/05/21 09:09:23;;;;;;;14.88;3.10;;;;;;;19.74;55.23;102039.66;5055874;28;20032;-76
2022/05/21 09:12:10;;;;;;;19.98;3.15;;;;;;;20.06;58.01;102035.06;5055834;28;20064;-76
2022/05/21 09:14:42;;;;;;;10.23;2.40;;;;;;;19.99;58.55;102039.56;5062374;28;20037;-75
2022/05/21 09:17:14;;;;;;;15.83;3.37;;;;;;;19.91;57.95;102037.25;5056412;28;20024;-75
2022/05/21 09:19:52;;;;;;;12.15;2.88;;;;;;;19.73;57.88;102032.78;5039239;28;20072;-76
2022/05/21 09:22:20;;;;;;;15.80;2.90;;;;;;;19.65;57.57;102035.72;5056984;28;20087;-76
2022/05/21 09:24:48;;;;;;;16.27;3.00;;;;;;;19.03;58.10;102040.81;5055812;28;20028;-75
2022/05/21 09:27:32;;;;;;;17.83;3.13;;;;;;;19.27;58.61;102043.66;5055367;28;20032;-77
2022/05/21 09:30:15;;;;;;;11.52;2.42;;;;;;;19.13;57.72;102048.19;5055456;28;20047;-76
2022/05/21 09:32:42;;;;;;;11.63;2.75;;;;;;;19.44;57.70;102041.31;5073412;28;20032;-77
2022/05/21 09:35:12;;;;;;;12.55;2.70;;;;;;;20.32;55.82;102045.47;5073608;28;20099;-74
2022/05/21 09:37:39;;;;;;;14.88;2.70;;;;;;;20.35;57.40;102037.16;5055995;28;20116;-75
2022/05/21 09:40:35;;;;;;;16.60;2.75;;;;;;;21.02;55.71;102039.66;5055666;28;20115;-76
2022/05/21 09:46:31;;;;;;;11.27;2.20;;;;;;;20.79;53.10;102045.66;5045576;28;20047;-75
2022/05/21 09:49:15;;;;;;;14.38;2.78;;;;;;;20.19;56.79;102041.16;5078910;28;20052;-78
2022/05/21 09:51:41;;;;;;;15.80;2.83;;;;;;;19.85;55.57;102045.97;5062721;28;20020;-76
2022/05/21 09:54:21;;;;;;;15.57;2.63;;;;;;;19.82;56.48;102054.28;5039300;28;20024;-76
2022/05/21 09:56:50;;;;;;;14.02;2.92;;;;;;;19.40;56.69;102051.44;5074035;28;20028;-76
2022/05/21 09:59:21;;;;;;;17.23;2.90;;;;;;;19.88;57.95;102057.84;5055671;28;20032;-77
2022/05/21 10:01:49;;;;;;;17.05;2.83;;;;;;;20.06;57.63;102055.25;5039825;28;20032;-76
2022/05/21 10:04:17;;;;;;;11.80;2.53;;;;;;;19.11;57.02;102058.91;5055533;28;20139;-76
2022/05/21 10:06:49;;;;;;;15.48;2.67;;;;;;;18.94;60.07;102037.66;5055601;28;20078;-76
2022/05/21 10:12:19;;;;;;;14.43;2.35;;;;;;;19.61;58.51;102060.72;5074025;28;20128;-76
2022/05/21 10:15:00;;;;;;;13.60;2.80;;;;;;;19.51;56.55;102068.28;5055801;28;20056;-77
2022/05/21 10:17:31;;;;;;;13.70;2.90;;;;;;;19.21;57.20;102070.72;5073184;28;20020;-75
2022/05/21 10:20:20;;;;;;;13.18;3.35;;;;;;;19.44;58.98;102078.00;5073758;28;20024;-76
2022/05/21 10:22:51;;;;;;;14.95;2.83;;;;;;;19.60;58.44;102078.28;5057938;28;20021;-76
2022/05/21 10:25:23;;;;;;;13.85;2.78;;;;;;;19.35;59.87;102074.84;5077002;28;20020;-77
2022/05/21 10:28:01;;;;;;;11.00;2.35;;;;;;;19.59;57.68;102076.69;5059494;28;20070;-76
2022/05/21 10:30:38;;;;;;;13.77;3.15;;;;;;;19.68;56.92;102066.75;5059310;28;20021;-76
2022/05/21 10:33:29;;;;;;;16.02;2.85;;;;;;;19.27;59.13;102075.13;5083551;28;20024;-77
2022/05/21 10:36:13;;;;;;;12.73;2.58;;;;;;;19.76;57.83;102079.56;5058971;28;20028;-76
2022/05/21 10:39:16;;;;;;;20.88;3.17;;;;;;;19.51;57.94;102084.00;5059279;28;20039;-76
2022/05/21 10:41:41;;;;;;;;;;;;;;;19.42;57.20;102090.53;5059675;28;20031;-75
2022/05/21 10:44:55;;;;;;;13.80;3.23;;;;;;;19.60;54.82;102090.59;5059285;28;19908;-77
2022/05/21 10:47:26;;;;;;;;;;;;;;;19.50;56.83;102093.66;5041703;28;20275;-76
2022/05/21 10:50:25;;;;;;;16.17;2.58;;;;;;;19.95;55.93;102090.88;5077024;28;19912;-76
2022/05/21 10:53:02;;;;;;;15.18;2.92;;;;;;;19.98;54.97;102098.31;5032428;28;20491;-78
2022/05/21 10:55:52;;;;;;;14.15;3.25;;;;;;;20.08;53.92;102094.38;5076575;28;20033;-77
2022/05/21 10:58:41;;;;;;;14.52;2.85;;;;;;;20.07;53.84;102104.06;5058859;28;20028;-77
2022/05/21 11:01:25;;;;;;;15.55;2.65;;;;;;;19.74;56.43;102094.72;5080101;28;20032;-74
2022/05/21 11:04:19;;;;;;;11.27;2.53;;;;;;;20.58;56.17;102095.03;5058029;28;20502;-76
2022/05/21 11:07:03;;;;;;;11.40;2.53;;;;;;;20.77;54.87;102097.63;5062273;28;20495;-76
2022/05/21 11:09:40;;;;;;;15.98;3.03;;;;;;;20.03;54.71;102098.47;5076522;28;20028;-75
2022/05/21 11:12:35;;;;;;;15.90;3.22;;;;;;;20.21;55.87;102100.28;5057927;28;20417;-75
2022/05/21 11:15:07;;;;;;;20.77;3.17;;;;;;;20.41;55.93;102104.50;5076162;28;20103;-76
2022/05/21 11:17:42;;;;;;;;;;;;;;;20.79;53.90;102106.88;5042320;28;20094;-77
2022/05/21 11:20:38;;;;;;;13.40;2.90;;;;;;;20.71;54.66;102089.63;5055436;28;19916;-77
2022/05/21 11:23:15;;;;;;;15.68;3.15;;;;;;;20.31;54.61;102094.50;5042810;28;20039;-76
2022/05/21 11:25:48;;;;;;;13.65;3.10;;;;;;;20.14;56.44;102109.25;5075329;28;20020;-78
2022/05/21 11:28:32;;;;;;;17.65;3.05;;;;;;;20.19;55.28;102110.19;5057618;28;20028;-76
2022/05/21 11:31:04;;;;;;;11.65;2.90;;;;;;;20.53;54.08;102102.78;5077380;28;20031;-76
2022/05/21 11:39:06;;;;;;;13.73;3.05;;;;;;;21.18;53.84;102083.69;5062096;28;20039;-77
2022/05/21 11:41:59;;;;;;;14.25;3.00;;;;;;;20.68;54.19;102108.44;5077113;28;20028;-76
2022/05/21 11:47:41;;;;;;;11.52;2.40;;;;;;;20.96;50.18;102091.28;5075675;28;20053;-76
2022/05/21 11:50:27;;;;;;;10.10;2.40;;;;;;;21.36;51.46;102099.41;5056961;28;20032;-77
2022/05/21 11:53:05;;;;;;;15.30;2.90;;;;;;;21.56;49.31;102095.66;5057516;28;20119;-75
2022/05/21 11:55:52;;;;;;;15.95;2.97;;;;;;;21.67;51.77;102094.84;5058705;28;20063;-75
2022/05/21 11:58:19;;;;;;;11.60;2.63;;;;;;;21.78;50.84;102106.38;5060578;28;20020;-75
2022/05/21 12:00:46;;;;;;;12.93;2.80;;;;;;;21.81;50.02;102105.94;5075339;28;20070;-75
2022/05/21 12:03:15;;;;;;;11.77;2.63;;;;;;;22.22;49.72;102102.38;5057459;28;20036;-75